This is the latest recevied weather packets stored in our database for station/object SQ6ELQ-11. If no packets are shown the sender has not sent any weather packets the latest 10 day(s).
| Time | Temp. | Humidity | Pressure | Rain* | Wind** | Luminosity | Snow |
|---|---|---|---|---|---|---|---|
| 1777567457 | 12.78° C | 27% | 1028.2 hPa | 0 mm | - | - | - |
| 1777566395 | 12.78° C | 26% | 1028.2 hPa | 0 mm | - | - | - |
| 1777565407 | 12.78° C | 27% | 1028.3 hPa | 0 mm | - | - | - |
| 1777564328 | 12.78° C | 27% | 1028.5 hPa | 0 mm | - | - | - |
| 1777563301 | 13.89° C | 24% | 1028.4 hPa | 0 mm | - | - | - |
| 1777562231 | 13.89° C | 24% | 1028.5 hPa | 0 mm | - | - | - |
| 1777561208 | 14.44° C | 23% | 1028.4 hPa | 0 mm | - | - | - |
| 1777560191 | 13.89° C | 22% | 1028.6 hPa | 0 mm | - | - | - |
| 1777558005 | 14.44° C | 22% | 1028.8 hPa | 0 mm | - | - | - |
| 1777556946 | 13.89° C | 23% | 1028.9 hPa | 0 mm | - | - | - |
| 1777555851 | 11.11° C | 25% | 1029.2 hPa | 0 mm | - | - | - |
| 1777554843 | 12.78° C | 26% | 1029.1 hPa | 0 mm | - | - | - |
| 1777553721 | 12.78° C | 26% | 1029.3 hPa | 0 mm | - | - | - |
| 1777552632 | 11.67° C | 28% | 1029.5 hPa | 0 mm | - | - | - |
| 1777551565 | 10.56° C | 28% | 1029.6 hPa | 0 mm | - | - | - |
| 1777550526 | 10.56° C | 27% | 1029.8 hPa | 0 mm | - | - | - |
| 1777549492 | 11.67° C | 29% | 1029.7 hPa | 0 mm | - | - | - |
| 1777548405 | 10.56° C | 29% | 1029.9 hPa | 0 mm | - | - | - |
| 1777547234 | 9.44° C | 29% | 1029.9 hPa | 0 mm | - | - | - |
| 1777546140 | 9.44° C | 27% | 1030.1 hPa | 0 mm | - | - | - |
| 1777545096 | 10° C | 28% | 1030.1 hPa | 0 mm | - | - | - |
| 1777544027 | 8.89° C | 26% | 1030.3 hPa | 0 mm | - | - | - |
| 1777542886 | 9.44° C | 27% | 1030.4 hPa | 0 mm | - | - | - |
| 1777541859 | 8.33° C | 28% | 1030.6 hPa | 0 mm | - | - | - |
| 1777540835 | 8.33° C | 29% | 1030.6 hPa | 0 mm | - | - | - |
* Rain latest hour (hover to see other rain measurements)
** Current wind speed in m/s (hover to see current wind gust speed)